sensor_id;sensor_type;location;lat;lon;timestamp;pressure;altitude;pressure_sealevel;temperature;humidity
70248;BME280;57641;51.416;5.506;2022-07-12T00:01:57;102490.34;;;21.94;53.50
70248;BME280;57641;51.416;5.506;2022-07-12T00:04:23;102486.94;;;21.92;53.41
70248;BME280;57641;51.416;5.506;2022-07-12T00:06:48;102494.63;;;21.88;53.55
70248;BME280;57641;51.416;5.506;2022-07-12T00:09:15;102491.25;;;21.86;53.58
70248;BME280;57641;51.416;5.506;2022-07-12T00:11:40;102488.53;;;21.86;53.41
70248;BME280;57641;51.416;5.506;2022-07-12T00:14:08;102487.88;;;21.84;53.46
70248;BME280;57641;51.416;5.506;2022-07-12T00:16:35;102488.25;;;21.81;53.50
70248;BME280;57641;51.416;5.506;2022-07-12T00:19:00;102479.25;;;21.81;53.69
70248;BME280;57641;51.416;5.506;2022-07-12T00:21:32;102480.00;;;21.75;53.65
70248;BME280;57641;51.416;5.506;2022-07-12T00:23:57;102469.44;;;21.65;54.08
70248;BME280;57641;51.416;5.506;2022-07-12T00:26:24;102473.34;;;21.63;54.16
70248;BME280;57641;51.416;5.506;2022-07-12T00:28:49;102468.47;;;21.58;54.17
70248;BME280;57641;51.416;5.506;2022-07-12T00:31:15;102465.13;;;21.56;54.09
70248;BME280;57641;51.416;5.506;2022-07-12T00:33:40;102473.91;;;21.58;54.19
70248;BME280;57641;51.416;5.506;2022-07-12T00:36:07;102472.59;;;21.54;54.24
70248;BME280;57641;51.416;5.506;2022-07-12T00:38:33;102469.22;;;21.52;54.11
70248;BME280;57641;51.416;5.506;2022-07-12T00:40:59;102471.94;;;21.52;54.19
70248;BME280;57641;51.416;5.506;2022-07-12T00:43:26;102479.63;;;21.48;54.06
70248;BME280;57641;51.416;5.506;2022-07-12T00:45:51;102478.31;;;21.44;54.27
70248;BME280;57641;51.416;5.506;2022-07-12T00:48:18;102458.66;;;21.42;54.11
70248;BME280;57641;51.416;5.506;2022-07-12T00:50:50;102462.38;;;21.41;54.30
70248;BME280;57641;51.416;5.506;2022-07-12T00:53:15;102464.63;;;21.38;54.22
70248;BME280;57641;51.416;5.506;2022-07-12T00:55:52;102470.72;;;21.40;54.28
70248;BME280;57641;51.416;5.506;2022-07-12T00:58:19;102462.59;;;21.40;53.71
70248;BME280;57641;51.416;5.506;2022-07-12T01:00:45;102464.81;;;21.36;54.08
70248;BME280;57641;51.416;5.506;2022-07-12T01:03:11;102463.16;;;21.35;54.01
70248;BME280;57641;51.416;5.506;2022-07-12T01:05:37;102464.34;;;21.33;54.09
70248;BME280;57641;51.416;5.506;2022-07-12T01:08:03;102463.88;;;21.29;54.13
70248;BME280;57641;51.416;5.506;2022-07-12T01:10:30;102466.94;;;21.26;54.07
70248;BME280;57641;51.416;5.506;2022-07-12T01:12:57;102470.50;;;21.27;53.93
70248;BME280;57641;51.416;5.506;2022-07-12T01:15:32;102462.47;;;21.19;54.47
70248;BME280;57641;51.416;5.506;2022-07-12T01:17:58;102470.41;;;21.20;54.67
70248;BME280;57641;51.416;5.506;2022-07-12T01:20:25;102465.81;;;21.21;54.11
70248;BME280;57641;51.416;5.506;2022-07-12T01:22:55;102465.34;;;21.17;54.30
70248;BME280;57641;51.416;5.506;2022-07-12T01:25:23;102461.47;;;21.12;54.07
70248;BME280;57641;51.416;5.506;2022-07-12T01:27:48;102468.97;;;21.10;54.12
70248;BME280;57641;51.416;5.506;2022-07-12T01:30:14;102476.88;;;21.11;54.15
70248;BME280;57641;51.416;5.506;2022-07-12T01:32:39;102477.09;;;21.10;54.17
70248;BME280;57641;51.416;5.506;2022-07-12T01:35:06;102481.84;;;21.07;54.52
70248;BME280;57641;51.416;5.506;2022-07-12T01:37:37;102487.81;;;21.03;54.26
70248;BME280;57641;51.416;5.506;2022-07-12T01:40:13;102494.66;;;20.99;54.16
70248;BME280;57641;51.416;5.506;2022-07-12T01:42:40;102490.41;;;20.96;54.54
70248;BME280;57641;51.416;5.506;2022-07-12T01:45:07;102494.13;;;20.95;54.64
70248;BME280;57641;51.416;5.506;2022-07-12T01:47:33;102491.97;;;20.91;54.54
70248;BME280;57641;51.416;5.506;2022-07-12T01:50:00;102491.13;;;20.90;54.49
70248;BME280;57641;51.416;5.506;2022-07-12T01:52:25;102501.13;;;20.90;54.54
70248;BME280;57641;51.416;5.506;2022-07-12T01:54:53;102492.81;;;20.91;54.37
70248;BME280;57641;51.416;5.506;2022-07-12T01:57:19;102493.38;;;20.87;54.29
70248;BME280;57641;51.416;5.506;2022-07-12T01:59:45;102490.16;;;20.83;54.55
70248;BME280;57641;51.416;5.506;2022-07-12T02:02:11;102493.91;;;20.82;54.15
70248;BME280;57641;51.416;5.506;2022-07-12T02:04:36;102487.34;;;20.77;54.33
70248;BME280;57641;51.416;5.506;2022-07-12T02:07:03;102484.63;;;20.77;54.35
70248;BME280;57641;51.416;5.506;2022-07-12T02:09:29;102482.94;;;20.76;54.34
70248;BME280;57641;51.416;5.506;2022-07-12T02:11:55;102484.13;;;20.73;54.21
70248;BME280;57641;51.416;5.506;2022-07-12T02:14:21;102481.81;;;20.70;54.03
70248;BME280;57641;51.416;5.506;2022-07-12T02:16:47;102482.50;;;20.64;54.29
70248;BME280;57641;51.416;5.506;2022-07-12T02:19:13;102483.91;;;20.60;54.58
70248;BME280;57641;51.416;5.506;2022-07-12T02:21:39;102483.75;;;20.53;54.66
70248;BME280;57641;51.416;5.506;2022-07-12T02:24:05;102476.66;;;20.52;54.08
70248;BME280;57641;51.416;5.506;2022-07-12T02:26:36;102482.78;;;20.46;54.31
70248;BME280;57641;51.416;5.506;2022-07-12T02:29:04;102474.88;;;20.37;54.60
70248;BME280;57641;51.416;5.506;2022-07-12T02:31:30;102477.97;;;20.34;54.63
70248;BME280;57641;51.416;5.506;2022-07-12T02:33:56;102478.97;;;20.33;54.56
70248;BME280;57641;51.416;5.506;2022-07-12T02:36:22;102474.91;;;20.29;54.61
70248;BME280;57641;51.416;5.506;2022-07-12T02:38:48;102480.16;;;20.30;54.82
70248;BME280;57641;51.416;5.506;2022-07-12T02:41:13;102476.59;;;20.30;54.51
70248;BME280;57641;51.416;5.506;2022-07-12T02:43:39;102473.38;;;20.26;54.61
70248;BME280;57641;51.416;5.506;2022-07-12T02:46:10;102481.50;;;20.26;54.71
70248;BME280;57641;51.416;5.506;2022-07-12T02:48:36;102478.31;;;20.22;54.57
70248;BME280;57641;51.416;5.506;2022-07-12T02:51:03;102487.63;;;20.20;54.34
70248;BME280;57641;51.416;5.506;2022-07-12T02:53:30;102487.84;;;20.18;54.10
70248;BME280;57641;51.416;5.506;2022-07-12T02:55:56;102487.53;;;20.13;54.46
70248;BME280;57641;51.416;5.506;2022-07-12T02:58:22;102485.16;;;20.10;54.25
70248;BME280;57641;51.416;5.506;2022-07-12T03:00:47;102485.47;;;20.15;54.22
70248;BME280;57641;51.416;5.506;2022-07-12T03:03:14;102481.09;;;20.06;54.01
70248;BME280;57641;51.416;5.506;2022-07-12T03:05:41;102483.34;;;20.03;54.45
70248;BME280;57641;51.416;5.506;2022-07-12T03:08:07;102486.88;;;20.03;54.17
70248;BME280;57641;51.416;5.506;2022-07-12T03:10:34;102487.91;;;20.02;53.89
70248;BME280;57641;51.416;5.506;2022-07-12T03:13:00;102479.63;;;19.96;54.72
70248;BME280;57641;51.416;5.506;2022-07-12T03:15:26;102482.69;;;19.93;54.49
70248;BME280;57641;51.416;5.506;2022-07-12T03:17:53;102483.03;;;19.90;54.42
70248;BME280;57641;51.416;5.506;2022-07-12T03:20:19;102483.41;;;19.87;54.58
70248;BME280;57641;51.416;5.506;2022-07-12T03:22:44;102487.28;;;19.84;54.59
70248;BME280;57641;51.416;5.506;2022-07-12T03:25:12;102475.81;;;19.82;54.41
70248;BME280;57641;51.416;5.506;2022-07-12T03:27:38;102472.25;;;19.81;54.34
70248;BME280;57641;51.416;5.506;2022-07-12T03:30:06;102469.03;;;19.78;54.68
70248;BME280;57641;51.416;5.506;2022-07-12T03:32:32;102473.94;;;19.74;54.36
70248;BME280;57641;51.416;5.506;2022-07-12T03:34:57;102470.22;;;19.75;54.57
70248;BME280;57641;51.416;5.506;2022-07-12T03:37:23;102474.97;;;19.73;54.43
70248;BME280;57641;51.416;5.506;2022-07-12T03:39:48;102479.53;;;19.73;54.41
70248;BME280;57641;51.416;5.506;2022-07-12T03:42:14;102480.25;;;19.67;54.49
70248;BME280;57641;51.416;5.506;2022-07-12T03:44:39;102470.75;;;19.63;54.79
70248;BME280;57641;51.416;5.506;2022-07-12T03:47:05;102472.47;;;19.64;54.55
70248;BME280;57641;51.416;5.506;2022-07-12T03:49:31;102477.38;;;19.60;54.84
70248;BME280;57641;51.416;5.506;2022-07-12T03:51:56;102475.69;;;19.59;54.94
70248;BME280;57641;51.416;5.506;2022-07-12T03:54:22;102480.25;;;19.59;54.87
70248;BME280;57641;51.416;5.506;2022-07-12T03:56:48;102476.69;;;19.58;55.09
70248;BME280;57641;51.416;5.506;2022-07-12T03:59:32;102480.28;;;19.51;54.94
70248;BME280;57641;51.416;5.506;2022-07-12T04:01:58;102477.38;;;19.44;55.68
70248;BME280;57641;51.416;5.506;2022-07-12T04:04:23;102480.59;;;19.48;55.43
70248;BME280;57641;51.416;5.506;2022-07-12T04:06:49;102484.31;;;19.47;55.30
70248;BME280;57641;51.416;5.506;2022-07-12T04:09:14;102488.72;;;19.48;55.92
70248;BME280;57641;51.416;5.506;2022-07-12T04:11:40;102485.00;;;19.49;55.49
70248;BME280;57641;51.416;5.506;2022-07-12T04:14:05;102485.69;;;19.51;55.18
70248;BME280;57641;51.416;5.506;2022-07-12T04:16:31;102482.31;;;19.49;55.65
70248;BME280;57641;51.416;5.506;2022-07-12T04:18:57;102484.84;;;19.50;55.56
70248;BME280;57641;51.416;5.506;2022-07-12T04:21:22;102481.81;;;19.45;55.42
70248;BME280;57641;51.416;5.506;2022-07-12T04:23:48;102478.75;;;19.48;55.74
70248;BME280;57641;51.416;5.506;2022-07-12T04:26:13;102481.47;;;19.48;55.44
70248;BME280;57641;51.416;5.506;2022-07-12T04:28:39;102485.69;;;19.51;55.77
70248;BME280;57641;51.416;5.506;2022-07-12T04:31:05;102480.09;;;19.52;55.39
70248;BME280;57641;51.416;5.506;2022-07-12T04:33:33;102485.50;;;19.52;55.81
70248;BME280;57641;51.416;5.506;2022-07-12T04:35:58;102475.53;;;19.53;55.79
70248;BME280;57641;51.416;5.506;2022-07-12T04:38:24;102488.41;;;19.51;55.70
70248;BME280;57641;51.416;5.506;2022-07-12T04:40:49;102491.91;;;19.51;56.02
70248;BME280;57641;51.416;5.506;2022-07-12T04:43:15;102485.34;;;19.54;55.75
70248;BME280;57641;51.416;5.506;2022-07-12T04:45:40;102488.72;;;19.56;55.94
70248;BME280;57641;51.416;5.506;2022-07-12T04:48:10;102487.69;;;19.57;56.12
70248;BME280;57641;51.416;5.506;2022-07-12T04:50:35;102496.66;;;19.57;56.00
70248;BME280;57641;51.416;5.506;2022-07-12T04:53:01;102480.94;;;19.61;56.42
70248;BME280;57641;51.416;5.506;2022-07-12T04:55:27;102495.97;;;19.63;56.39
70248;BME280;57641;51.416;5.506;2022-07-12T04:57:52;102491.88;;;19.67;56.43
70248;BME280;57641;51.416;5.506;2022-07-12T05:00:18;102483.44;;;19.70;56.67
70248;BME280;57641;51.416;5.506;2022-07-12T05:02:43;102489.50;;;19.72;57.23
70248;BME280;57641;51.416;5.506;2022-07-12T05:05:08;102500.31;;;19.80;57.26
70248;BME280;57641;51.416;5.506;2022-07-12T05:07:34;102502.66;;;19.83;57.37
70248;BME280;57641;51.416;5.506;2022-07-12T05:10:00;102498.94;;;19.93;57.46
70248;BME280;57641;51.416;5.506;2022-07-12T05:12:25;102492.81;;;19.99;57.48
70248;BME280;57641;51.416;5.506;2022-07-12T05:14:51;102506.69;;;20.04;57.21
70248;BME280;57641;51.416;5.506;2022-07-12T05:17:16;102509.88;;;20.07;58.01
70248;BME280;57641;51.416;5.506;2022-07-12T05:19:41;102514.59;;;20.13;57.91
70248;BME280;57641;51.416;5.506;2022-07-12T05:22:07;102517.63;;;20.18;58.04
70248;BME280;57641;51.416;5.506;2022-07-12T05:24:32;102512.53;;;20.23;57.96
70248;BME280;57641;51.416;5.506;2022-07-12T05:26:58;102511.13;;;20.28;58.32
70248;BME280;57641;51.416;5.506;2022-07-12T05:29:24;102516.53;;;20.36;58.26
70248;BME280;57641;51.416;5.506;2022-07-12T05:31:49;102518.75;;;20.40;58.90
70248;BME280;57641;51.416;5.506;2022-07-12T05:34:14;102523.25;;;20.48;58.82
70248;BME280;57641;51.416;5.506;2022-07-12T05:36:40;102525.25;;;20.54;58.93
70248;BME280;57641;51.416;5.506;2022-07-12T05:39:06;102532.00;;;20.58;59.26
70248;BME280;57641;51.416;5.506;2022-07-12T05:41:32;102531.13;;;20.65;59.45
70248;BME280;57641;51.416;5.506;2022-07-12T05:43:57;102540.56;;;20.78;59.56
70248;BME280;57641;51.416;5.506;2022-07-12T05:46:23;102538.44;;;20.88;59.52
70248;BME280;57641;51.416;5.506;2022-07-12T05:48:48;102544.47;;;20.98;59.59
70248;BME280;57641;51.416;5.506;2022-07-12T05:51:14;102556.41;;;21.12;59.71
70248;BME280;57641;51.416;5.506;2022-07-12T05:53:58;102561.13;;;21.18;59.99
70248;BME280;57641;51.416;5.506;2022-07-12T05:56:23;102547.31;;;21.27;59.86
70248;BME280;57641;51.416;5.506;2022-07-12T05:58:49;102557.56;;;21.40;60.07
70248;BME280;57641;51.416;5.506;2022-07-12T06:01:15;102563.56;;;21.50;60.51
70248;BME280;57641;51.416;5.506;2022-07-12T06:03:42;102565.00;;;21.61;60.51
70248;BME280;57641;51.416;5.506;2022-07-12T06:06:07;102566.78;;;21.68;60.20
70248;BME280;57641;51.416;5.506;2022-07-12T06:08:32;102570.75;;;21.80;60.03
70248;BME280;57641;51.416;5.506;2022-07-12T06:10:58;102568.59;;;21.90;59.87
70248;BME280;57641;51.416;5.506;2022-07-12T06:13:24;102571.72;;;22.02;59.82
70248;BME280;57641;51.416;5.506;2022-07-12T06:15:50;102567.88;;;22.11;59.68
70248;BME280;57641;51.416;5.506;2022-07-12T06:18:15;102573.25;;;22.19;59.51
70248;BME280;57641;51.416;5.506;2022-07-12T06:20:41;102571.25;;;22.28;59.14
70248;BME280;57641;51.416;5.506;2022-07-12T06:23:06;102572.19;;;22.35;59.01
70248;BME280;57641;51.416;5.506;2022-07-12T06:25:31;102580.22;;;22.43;59.10
70248;BME280;57641;51.416;5.506;2022-07-12T06:28:00;102584.56;;;22.52;59.18
70248;BME280;57641;51.416;5.506;2022-07-12T06:30:26;102586.13;;;22.61;58.88
70248;BME280;57641;51.416;5.506;2022-07-12T06:32:51;102592.28;;;22.70;58.80
70248;BME280;57641;51.416;5.506;2022-07-12T06:35:17;102585.94;;;22.78;59.18
70248;BME280;57641;51.416;5.506;2022-07-12T06:37:43;102582.22;;;22.85;58.64
70248;BME280;57641;51.416;5.506;2022-07-12T06:40:09;102586.16;;;22.97;58.24
70248;BME280;57641;51.416;5.506;2022-07-12T06:42:35;102584.13;;;23.06;58.13
70248;BME280;57641;51.416;5.506;2022-07-12T06:45:01;102576.88;;;23.13;57.78
70248;BME280;57641;51.416;5.506;2022-07-12T06:47:27;102579.69;;;23.20;57.76
70248;BME280;57641;51.416;5.506;2022-07-12T06:49:53;102580.00;;;23.31;57.88
70248;BME280;57641;51.416;5.506;2022-07-12T06:52:18;102583.25;;;23.41;57.68
70248;BME280;57641;51.416;5.506;2022-07-12T06:54:44;102584.81;;;23.50;57.48
70248;BME280;57641;51.416;5.506;2022-07-12T06:57:09;102587.13;;;23.53;57.25
70248;BME280;57641;51.416;5.506;2022-07-12T06:59:35;102585.97;;;23.63;57.22
70248;BME280;57641;51.416;5.506;2022-07-12T07:02:01;102586.25;;;23.74;56.96
70248;BME280;57641;51.416;5.506;2022-07-12T07:04:26;102589.69;;;23.83;56.99
70248;BME280;57641;51.416;5.506;2022-07-12T07:06:52;102582.34;;;23.83;56.51
70248;BME280;57641;51.416;5.506;2022-07-12T07:09:17;102585.94;;;23.90;56.66
70248;BME280;57641;51.416;5.506;2022-07-12T07:11:43;102579.94;;;23.95;56.75
70248;BME280;57641;51.416;5.506;2022-07-12T07:14:09;102586.88;;;24.04;56.53
70248;BME280;57641;51.416;5.506;2022-07-12T07:16:34;102579.00;;;24.16;56.68
70248;BME280;57641;51.416;5.506;2022-07-12T07:19:00;102583.06;;;24.26;56.45
70248;BME280;57641;51.416;5.506;2022-07-12T07:21:27;102578.28;;;24.35;56.32
70248;BME280;57641;51.416;5.506;2022-07-12T07:23:52;102578.94;;;24.44;55.22
70248;BME280;57641;51.416;5.506;2022-07-12T07:26:18;102578.16;;;24.56;55.32
70248;BME280;57641;51.416;5.506;2022-07-12T07:28:44;102581.34;;;24.66;55.35
70248;BME280;57641;51.416;5.506;2022-07-12T07:31:28;102576.78;;;24.73;54.56
70248;BME280;57641;51.416;5.506;2022-07-12T07:33:54;102578.59;;;24.60;54.21
70248;BME280;57641;51.416;5.506;2022-07-12T07:36:20;102582.66;;;24.77;54.48
70248;BME280;57641;51.416;5.506;2022-07-12T07:38:45;102580.38;;;24.87;53.63
70248;BME280;57641;51.416;5.506;2022-07-12T07:41:10;102582.53;;;24.98;53.76
70248;BME280;57641;51.416;5.506;2022-07-12T07:43:36;102582.56;;;25.05;53.57
70248;BME280;57641;51.416;5.506;2022-07-12T07:46:01;102580.66;;;25.12;52.53
70248;BME280;57641;51.416;5.506;2022-07-12T07:48:28;102575.00;;;25.20;52.55
70248;BME280;57641;51.416;5.506;2022-07-12T07:50:54;102580.06;;;25.30;52.80
70248;BME280;57641;51.416;5.506;2022-07-12T07:53:19;102576.69;;;25.34;51.86
70248;BME280;57641;51.416;5.506;2022-07-12T07:55:45;102576.72;;;25.41;51.59
70248;BME280;57641;51.416;5.506;2022-07-12T07:58:10;102583.41;;;25.38;51.56
70248;BME280;57641;51.416;5.506;2022-07-12T08:00:36;102579.03;;;25.50;51.31
70248;BME280;57641;51.416;5.506;2022-07-12T08:03:01;102569.13;;;25.49;50.42
70248;BME280;57641;51.416;5.506;2022-07-12T08:05:27;102560.31;;;25.54;50.72
70248;BME280;57641;51.416;5.506;2022-07-12T08:07:53;102564.56;;;25.63;50.99
70248;BME280;57641;51.416;5.506;2022-07-12T08:10:18;102568.75;;;25.65;50.87
70248;BME280;57641;51.416;5.506;2022-07-12T08:12:44;102564.97;;;25.60;50.02
70248;BME280;57641;51.416;5.506;2022-07-12T08:15:10;102564.75;;;25.68;50.47
70248;BME280;57641;51.416;5.506;2022-07-12T08:17:35;102565.38;;;25.77;50.36
70248;BME280;57641;51.416;5.506;2022-07-12T08:20:04;102572.72;;;25.89;50.11
70248;BME280;57641;51.416;5.506;2022-07-12T08:22:29;102565.38;;;25.90;49.61
70248;BME280;57641;51.416;5.506;2022-07-12T08:24:55;102570.78;;;26.03;49.77
70248;BME280;57641;51.416;5.506;2022-07-12T08:27:20;102560.47;;;26.12;49.43
70248;BME280;57641;51.416;5.506;2022-07-12T08:29:46;102561.72;;;26.16;49.27
70248;BME280;57641;51.416;5.506;2022-07-12T08:32:11;102564.84;;;26.19;49.67
70248;BME280;57641;51.416;5.506;2022-07-12T08:34:36;102563.81;;;26.20;49.22
70248;BME280;57641;51.416;5.506;2022-07-12T08:37:02;102567.78;;;26.18;48.73
70248;BME280;57641;51.416;5.506;2022-07-12T08:39:28;102572.03;;;26.27;49.02
70248;BME280;57641;51.416;5.506;2022-07-12T08:41:54;102571.13;;;26.39;48.71
70248;BME280;57641;51.416;5.506;2022-07-12T08:44:19;102574.47;;;26.48;49.05
70248;BME280;57641;51.416;5.506;2022-07-12T08:46:45;102572.31;;;26.57;48.58
70248;BME280;57641;51.416;5.506;2022-07-12T08:49:12;102581.56;;;26.56;48.06
70248;BME280;57641;51.416;5.506;2022-07-12T08:51:38;102578.84;;;26.56;48.13
70248;BME280;57641;51.416;5.506;2022-07-12T08:54:08;102587.88;;;26.56;48.69
70248;BME280;57641;51.416;5.506;2022-07-12T08:56:40;102586.88;;;26.44;48.02
70248;BME280;57641;51.416;5.506;2022-07-12T09:01:49;102588.34;;;26.53;47.31
70248;BME280;57641;51.416;5.506;2022-07-12T09:04:20;102594.00;;;26.58;48.13
70248;BME280;57641;51.416;5.506;2022-07-12T09:06:46;102590.22;;;26.59;47.52
70248;BME280;57641;51.416;5.506;2022-07-12T09:09:31;102600.06;;;26.60;46.28
70248;BME280;57641;51.416;5.506;2022-07-12T09:11:58;102595.81;;;26.71;47.31
70248;BME280;57641;51.416;5.506;2022-07-12T09:14:23;102591.34;;;26.83;46.47
70248;BME280;57641;51.416;5.506;2022-07-12T09:17:06;102597.19;;;27.00;46.90
70248;BME280;57641;51.416;5.506;2022-07-12T09:19:38;102596.50;;;27.04;44.75
70248;BME280;57641;51.416;5.506;2022-07-12T09:22:14;102593.78;;;27.04;43.82
70248;BME280;57641;51.416;5.506;2022-07-12T09:24:42;102592.72;;;27.05;44.16
70248;BME280;57641;51.416;5.506;2022-07-12T09:27:07;102590.06;;;27.23;43.81
70248;BME280;57641;51.416;5.506;2022-07-12T09:29:48;102585.59;;;27.29;43.45
70248;BME280;57641;51.416;5.506;2022-07-12T09:32:15;102595.16;;;27.20;42.64
70248;BME280;57641;51.416;5.506;2022-07-12T09:34:59;102586.84;;;27.33;43.33
70248;BME280;57641;51.416;5.506;2022-07-12T09:37:44;102586.78;;;27.40;44.44
70248;BME280;57641;51.416;5.506;2022-07-12T09:40:10;102589.44;;;27.53;44.26
70248;BME280;57641;51.416;5.506;2022-07-12T09:42:36;102587.13;;;27.50;42.85
70248;BME280;57641;51.416;5.506;2022-07-12T09:45:03;102580.78;;;27.56;42.79
70248;BME280;57641;51.416;5.506;2022-07-12T09:47:29;102580.44;;;27.70;43.31
70248;BME280;57641;51.416;5.506;2022-07-12T09:49:55;102573.03;;;27.71;42.29
70248;BME280;57641;51.416;5.506;2022-07-12T09:52:25;102570.19;;;27.84;42.75
70248;BME280;57641;51.416;5.506;2022-07-12T09:54:53;102572.94;;;28.02;43.24
70248;BME280;57641;51.416;5.506;2022-07-12T09:57:30;102569.81;;;27.81;42.73
70248;BME280;57641;51.416;5.506;2022-07-12T09:59:58;102569.66;;;27.94;43.67
70248;BME280;57641;51.416;5.506;2022-07-12T10:02:24;102573.56;;;28.04;42.66
70248;BME280;57641;51.416;5.506;2022-07-12T10:04:50;102567.72;;;28.19;43.11
70248;BME280;57641;51.416;5.506;2022-07-12T10:07:16;102568.47;;;28.26;42.87
70248;BME280;57641;51.416;5.506;2022-07-12T10:09:51;102568.63;;;28.31;42.41
70248;BME280;57641;51.416;5.506;2022-07-12T10:12:20;102554.84;;;28.38;42.33
70248;BME280;57641;51.416;5.506;2022-07-12T10:14:46;102559.97;;;28.64;42.56
70248;BME280;57641;51.416;5.506;2022-07-12T10:17:21;102566.19;;;28.71;40.83
70248;BME280;57641;51.416;5.506;2022-07-12T10:19:47;102567.81;;;28.61;39.82
70248;BME280;57641;51.416;5.506;2022-07-12T10:22:20;102558.16;;;28.58;40.15
70248;BME280;57641;51.416;5.506;2022-07-12T10:24:50;102558.16;;;28.58;39.90
70248;BME280;57641;51.416;5.506;2022-07-12T10:29:50;102549.59;;;28.84;39.13
70248;BME280;57641;51.416;5.506;2022-07-12T10:32:23;102556.63;;;28.80;38.59
70248;BME280;57641;51.416;5.506;2022-07-12T10:37:24;102552.88;;;29.05;39.05
70248;BME280;57641;51.416;5.506;2022-07-12T10:40:15;102550.97;;;29.05;38.51
70248;BME280;57641;51.416;5.506;2022-07-12T10:45:32;102546.78;;;29.03;38.13
70248;BME280;57641;51.416;5.506;2022-07-12T10:48:05;102537.59;;;29.20;37.99
70248;BME280;57641;51.416;5.506;2022-07-12T10:53:26;102541.97;;;29.51;37.96
70248;BME280;57641;51.416;5.506;2022-07-12T10:58:50;102543.41;;;29.54;37.05
70248;BME280;57641;51.416;5.506;2022-07-12T11:01:21;102543.31;;;29.60;37.48
70248;BME280;57641;51.416;5.506;2022-07-12T11:06:17;102534.78;;;29.85;36.63
70248;BME280;57641;51.416;5.506;2022-07-12T11:09:03;102534.31;;;29.88;35.89
70248;BME280;57641;51.416;5.506;2022-07-12T11:11:32;102532.53;;;29.82;35.80
70248;BME280;57641;51.416;5.506;2022-07-12T11:13:59;102536.63;;;29.91;34.77
70248;BME280;57641;51.416;5.506;2022-07-12T11:16:26;102536.84;;;30.01;36.40
70248;BME280;57641;51.416;5.506;2022-07-12T11:18:53;102541.94;;;30.09;36.54
70248;BME280;57641;51.416;5.506;2022-07-12T11:21:19;102535.47;;;30.15;36.00
70248;BME280;57641;51.416;5.506;2022-07-12T11:23:46;102530.72;;;30.11;35.79
70248;BME280;57641;51.416;5.506;2022-07-12T11:26:12;102534.00;;;30.25;33.92
70248;BME280;57641;51.416;5.506;2022-07-12T11:28:40;102531.97;;;30.32;34.66
70248;BME280;57641;51.416;5.506;2022-07-12T11:31:09;102532.44;;;30.40;34.99
70248;BME280;57641;51.416;5.506;2022-07-12T11:33:46;102524.66;;;30.49;35.59
70248;BME280;57641;51.416;5.506;2022-07-12T11:36:13;102532.06;;;30.48;35.09
70248;BME280;57641;51.416;5.506;2022-07-12T11:38:43;102516.03;;;30.45;35.09
70248;BME280;57641;51.416;5.506;2022-07-12T11:41:11;102520.91;;;30.55;35.02
70248;BME280;57641;51.416;5.506;2022-07-12T11:43:38;102520.28;;;30.65;35.50
70248;BME280;57641;51.416;5.506;2022-07-12T11:46:05;102514.34;;;30.73;34.34
70248;BME280;57641;51.416;5.506;2022-07-12T11:48:31;102512.09;;;30.70;34.59
70248;BME280;57641;51.416;5.506;2022-07-12T11:51:03;102510.03;;;30.77;34.18
70248;BME280;57641;51.416;5.506;2022-07-12T11:53:29;102508.47;;;30.81;32.76
70248;BME280;57641;51.416;5.506;2022-07-12T11:55:57;102517.13;;;30.89;33.76
70248;BME280;57641;51.416;5.506;2022-07-12T11:58:25;102512.00;;;30.93;33.59
70248;BME280;57641;51.416;5.506;2022-07-12T12:00:52;102511.47;;;30.96;33.34
70248;BME280;57641;51.416;5.506;2022-07-12T12:03:19;102509.16;;;31.04;34.09
70248;BME280;57641;51.416;5.506;2022-07-12T12:05:53;102510.84;;;31.06;33.14
70248;BME280;57641;51.416;5.506;2022-07-12T12:08:19;102509.09;;;31.16;33.32
70248;BME280;57641;51.416;5.506;2022-07-12T12:10:58;102509.94;;;31.17;32.97
70248;BME280;57641;51.416;5.506;2022-07-12T12:13:26;102508.09;;;31.22;32.83
70248;BME280;57641;51.416;5.506;2022-07-12T12:15:52;102508.25;;;31.16;32.85
70248;BME280;57641;51.416;5.506;2022-07-12T12:18:48;102506.50;;;31.10;32.96
70248;BME280;57641;51.416;5.506;2022-07-12T12:21:13;102502.13;;;31.30;33.05
70248;BME280;57641;51.416;5.506;2022-07-12T12:23:40;102491.44;;;31.51;34.29
70248;BME280;57641;51.416;5.506;2022-07-12T12:26:20;102493.69;;;31.54;31.32
70248;BME280;57641;51.416;5.506;2022-07-12T12:28:49;102489.72;;;31.61;32.48
70248;BME280;57641;51.416;5.506;2022-07-12T12:31:21;102488.59;;;31.62;30.94
70248;BME280;57641;51.416;5.506;2022-07-12T12:33:51;102476.22;;;31.65;32.37
70248;BME280;57641;51.416;5.506;2022-07-12T12:36:18;102480.72;;;31.71;32.12
70248;BME280;57641;51.416;5.506;2022-07-12T12:38:44;102487.72;;;31.78;31.46
70248;BME280;57641;51.416;5.506;2022-07-12T12:41:11;102484.88;;;31.73;29.60
70248;BME280;57641;51.416;5.506;2022-07-12T12:43:37;102485.91;;;31.67;28.78
70248;BME280;57641;51.416;5.506;2022-07-12T12:46:03;102490.16;;;31.75;29.51
70248;BME280;57641;51.416;5.506;2022-07-12T12:48:30;102484.13;;;31.78;29.47
70248;BME280;57641;51.416;5.506;2022-07-12T12:51:10;102477.63;;;31.67;29.94
70248;BME280;57641;51.416;5.506;2022-07-12T12:53:39;102474.13;;;31.72;30.17
70248;BME280;57641;51.416;5.506;2022-07-12T12:56:08;102473.09;;;31.78;31.38
70248;BME280;57641;51.416;5.506;2022-07-12T12:58:34;102470.66;;;31.81;30.26
70248;BME280;57641;51.416;5.506;2022-07-12T13:01:00;102459.94;;;31.85;30.45
70248;BME280;57641;51.416;5.506;2022-07-12T13:03:26;102476.63;;;31.95;31.41
70248;BME280;57641;51.416;5.506;2022-07-12T13:05:52;102470.63;;;31.98;30.82
70248;BME280;57641;51.416;5.506;2022-07-12T13:08:18;102474.53;;;32.02;30.31
70248;BME280;57641;51.416;5.506;2022-07-12T13:10:45;102486.06;;;31.99;31.52